Time;durP1;ratioP1;P1;durP2;ratioP2;P2;SDS_P1;SDS_P2;PMS_P1;PMS_P2;Temp;Humidity;BMP_temperature;BMP_pressure;BME280_temperature;BME280_humidity;BME280_pressure;Samples;Min_cycle;Max_cycle;Signal;HPM_P1;HPM_P2
2023/07/19 00:01:09;;;;;;;6.83;3.60;;;19.60;99.90;;;;;;5121328;28;20507;-59
2023/07/19 00:03:36;;;;;;;5.20;3.40;;;;;;;;;;5119722;28;20505;-59
2023/07/19 00:06:05;;;;;;;6.60;3.87;;;20.20;99.90;;;;;;5119554;28;20450;-59
2023/07/19 00:08:32;;;;;;;8.13;3.37;;;20.10;99.90;;;;;;5118290;28;20456;-59
2023/07/19 00:10:59;;;;;;;5.73;3.70;;;20.00;99.90;;;;;;5120720;28;20840;-59
2023/07/19 00:13:26;;;;;;;6.00;3.33;;;19.80;99.90;;;;;;5120391;28;20441;-60
2023/07/19 00:15:54;;;;;;;6.47;2.70;;;;;;;;;;5121009;28;20441;-60
2023/07/19 00:18:21;;;;;;;4.00;3.60;;;20.20;99.90;;;;;;5125002;28;20535;-57
2023/07/19 00:20:49;;;;;;;6.93;3.37;;;19.90;98.00;;;;;;5130442;28;20441;-60
2023/07/19 00:23:18;;;;;;;5.60;3.60;;;19.80;99.90;;;;;;5123313;28;20444;-59
2023/07/19 00:25:46;;;;;;;4.20;3.47;;;;;;;;;;5123231;28;20491;-59
2023/07/19 00:28:13;;;;;;;4.57;3.00;;;19.70;99.90;;;;;;5124516;28;20471;-58
2023/07/19 00:30:39;;;;;;;8.87;3.60;;;19.30;99.90;;;;;;5124426;28;20524;-60
2023/07/19 00:33:07;;;;;;;9.97;2.70;;;;;;;;;;5123804;28;20528;-59
2023/07/19 00:35:34;;;;;;;4.87;2.70;;;;;;;;;;5125805;28;20460;-58
2023/07/19 00:38:00;;;;;;;4.40;2.93;;;19.70;99.90;;;;;;5124842;28;20508;-60
2023/07/19 00:40:32;;;;;;;6.17;2.43;;;19.50;99.90;;;;;;5124487;28;20452;-59
2023/07/19 00:42:59;;;;;;;6.40;3.90;;;19.50;99.90;;;;;;5124454;28;20469;-59
2023/07/19 00:45:27;;;;;;;11.70;3.07;;;19.60;99.90;;;;;;5122055;28;20483;-59
2023/07/19 00:47:54;;;;;;;4.00;2.37;;;20.00;99.90;;;;;;5119777;28;20543;-61
2023/07/19 00:50:22;;;;;;;3.73;2.80;;;19.40;99.90;;;;;;5115318;28;20956;-57
2023/07/19 00:52:51;;;;;;;2.80;2.40;;;20.00;99.90;;;;;;5114980;28;20947;-59
2023/07/19 00:55:19;;;;;;;6.63;2.90;;;20.00;99.90;;;;;;5114816;28;20432;-59
2023/07/19 00:57:47;;;;;;;4.10;2.87;;;18.90;99.90;;;;;;5114450;28;20487;-59
2023/07/19 01:00:14;;;;;;;3.60;2.70;;;19.20;99.90;;;;;;5116968;28;20453;-60
2023/07/19 01:02:44;;;;;;;7.30;2.63;;;19.10;99.90;;;;;;5117905;28;20904;-59
2023/07/19 01:05:11;;;;;;;8.13;2.70;;;19.30;99.90;;;;;;5117910;28;20494;-61
2023/07/19 01:07:38;;;;;;;3.67;2.83;;;19.10;99.90;;;;;;5118176;28;20502;-59
2023/07/19 01:10:07;;;;;;;3.57;2.13;;;18.90;99.90;;;;;;5117979;28;20440;-59
2023/07/19 01:12:33;;;;;;;4.80;2.33;;;19.10;99.90;;;;;;5121740;28;20512;-60
2023/07/19 01:15:05;;;;;;;2.90;2.33;;;19.30;99.90;;;;;;5129842;28;20440;-60
2023/07/19 01:17:32;;;;;;;8.33;2.77;;;;;;;;;;5122007;28;20469;-59
2023/07/19 01:19:59;;;;;;;3.10;2.80;;;19.30;99.90;;;;;;5125308;27;20503;-59
2023/07/19 01:22:33;;;;;;;4.70;2.67;;;19.00;99.90;;;;;;5132339;28;20479;-58
2023/07/19 01:25:00;;;;;;;2.90;2.03;;;19.10;99.90;;;;;;5123707;28;20475;-60
2023/07/19 01:27:27;;;;;;;6.83;2.97;;;19.10;99.90;;;;;;5122773;28;20474;-60
2023/07/19 01:29:55;;;;;;;4.13;2.67;;;;;;;;;;5127749;28;20514;-60
2023/07/19 01:32:22;;;;;;;4.00;2.60;;;;;;;;;;5121004;28;20449;-61
2023/07/19 01:34:49;;;;;;;5.60;2.57;;;;;;;;;;5114318;28;20496;-60
2023/07/19 01:37:16;;;;;;;3.37;2.93;;;;;;;;;;5114387;28;20527;-58
2023/07/19 01:39:45;;;;;;;6.53;3.30;;;18.90;99.90;;;;;;5115314;28;20559;-59
2023/07/19 01:42:12;;;;;;;3.63;2.80;;;;;;;;;;5114663;28;20485;-60
2023/07/19 01:44:39;;;;;;;2.67;2.47;;;18.70;99.90;;;;;;5114213;28;20464;-60
2023/07/19 01:47:06;;;;;;;14.20;9.80;;;;;;;;;;5116402;28;20802;-60
2023/07/19 01:49:34;;;;;;;3.73;3.33;;;;;;;;;;5121892;28;20492;-62
2023/07/19 01:52:01;;;;;;;8.50;3.17;;;;;;;;;;5120329;28;20477;-63
2023/07/19 01:54:28;;;;;;;5.10;3.13;;;18.90;99.90;;;;;;5114350;28;20468;-62
2023/07/19 01:56:56;;;;;;;5.10;3.23;;;18.40;99.90;;;;;;5114826;28;20528;-60
2023/07/19 01:59:23;;;;;;;5.93;2.73;;;18.60;99.90;;;;;;5116072;28;20575;-58
2023/07/19 02:01:50;;;;;;;7.83;2.50;;;18.40;99.90;;;;;;5115362;28;20509;-60
2023/07/19 02:04:17;;;;;;;4.77;2.60;;;18.80;99.90;;;;;;5114030;28;20909;-61
2023/07/19 02:06:43;;;;;;;3.97;2.30;;;18.40;99.90;;;;;;5116349;28;20508;-59
2023/07/19 02:09:10;;;;;;;4.93;2.83;;;18.40;99.90;;;;;;5114038;28;20477;-60
2023/07/19 02:11:37;;;;;;;4.57;2.47;;;;;;;;;;5113858;28;20468;-60
2023/07/19 02:14:06;;;;;;;4.20;2.73;;;18.70;99.90;;;;;;5114229;28;20767;-59
2023/07/19 02:16:33;;;;;;;3.97;2.97;;;;;;;;;;5115673;28;20500;-62
2023/07/19 02:19:00;;;;;;;7.60;2.57;;;;;;;;;;5120924;28;20487;-60
2023/07/19 02:21:29;;;;;;;5.40;2.20;;;;;;;;;;5116941;28;20964;-60
2023/07/19 02:23:57;;;;;;;2.30;1.90;;;;;;;;;;5117614;28;20436;-58
2023/07/19 02:26:24;;;;;;;3.40;2.30;;;18.40;99.90;;;;;;5131268;28;20532;-60
2023/07/19 02:28:52;;;;;;;3.37;2.10;;;;;;;;;;5133338;28;20437;-61
2023/07/19 02:31:20;;;;;;;2.97;2.33;;;18.50;99.90;;;;;;5118381;28;20472;-58
2023/07/19 02:33:47;;;;;;;2.27;1.90;;;;;;;;;;5118088;28;20917;-59
2023/07/19 02:36:17;;;;;;;3.67;2.70;;;;;;;;;;5118305;28;20527;-60
2023/07/19 02:38:47;;;;;;;4.07;2.37;;;18.30;99.90;;;;;;5118420;28;20464;-59
2023/07/19 02:41:14;;;;;;;2.10;1.67;;;18.70;99.90;;;;;;5118833;28;20460;-58
2023/07/19 02:43:41;;;;;;;3.20;2.53;;;;;;;;;;5118569;28;20560;-60
2023/07/19 02:46:09;;;;;;;2.37;1.90;;;;;;;;;;5117556;28;20809;-60
2023/07/19 02:48:37;;;;;;;2.33;1.70;;;18.40;99.90;;;;;;5118146;28;20453;-59
2023/07/19 02:51:04;;;;;;;3.33;1.93;;;18.30;99.90;;;;;;5118501;28;20448;-60
2023/07/19 02:53:31;;;;;;;2.63;1.57;;;18.40;99.90;;;;;;5118929;28;20452;-60
2023/07/19 02:55:58;;;;;;;2.73;1.90;;;;;;;;;;5120713;28;20513;-58
2023/07/19 02:58:28;;;;;;;7.00;5.00;;;18.60;99.90;;;;;;5120825;28;20480;-60
2023/07/19 03:00:56;;;;;;;3.33;1.73;;;;;;;;;;5120895;28;20452;-62
2023/07/19 03:03:23;;;;;;;3.00;1.67;;;18.50;99.90;;;;;;5120402;28;20464;-59
2023/07/19 03:05:51;;;;;;;3.57;1.90;;;19.10;99.90;;;;;;5120974;28;20476;-59
2023/07/19 03:08:18;;;;;;;3.40;2.40;;;18.40;99.90;;;;;;5121865;28;20594;-58
2023/07/19 03:10:45;;;;;;;3.97;2.40;;;18.20;99.90;;;;;;5127301;28;20448;-57
2023/07/19 03:13:12;;;;;;;3.33;2.30;;;;;;;;;;5125181;28;20472;-57
2023/07/19 03:15:47;;;;;;;3.70;2.03;;;18.40;99.90;;;;;;5122996;28;20444;-59
2023/07/19 03:18:14;;;;;;;3.33;2.07;;;18.70;99.90;;;;;;5124812;28;20471;-59
2023/07/19 03:20:40;;;;;;;3.50;1.90;;;18.90;99.90;;;;;;5131573;28;20887;-59
2023/07/19 03:23:09;;;;;;;3.20;2.23;;;18.50;99.90;;;;;;5136743;28;20461;-57
2023/07/19 03:25:36;;;;;;;3.30;2.00;;;18.70;99.90;;;;;;5124199;28;20905;-59
2023/07/19 03:28:03;;;;;;;3.83;2.37;;;;;;;;;;5123209;28;20529;-60
2023/07/19 03:30:30;;;;;;;5.07;2.67;;;;;;;;;;5111344;28;20524;-58
2023/07/19 03:32:57;;;;;;;4.00;2.60;;;;;;;;;;5106666;28;20481;-59
2023/07/19 03:35:26;;;;;;;3.53;2.60;;;18.30;99.90;;;;;;5095940;28;20510;-60
2023/07/19 03:37:53;;;;;;;3.50;2.77;;;19.00;99.90;;;;;;5097158;28;20850;-60
2023/07/19 03:40:22;;;;;;;2.43;1.90;;;18.40;99.90;;;;;;5099821;28;20496;-58
2023/07/19 03:42:49;;;;;;;3.00;2.20;;;18.60;99.90;;;;;;5104558;28;20477;-61
2023/07/19 03:45:16;;;;;;;5.50;2.40;;;18.90;99.90;;;;;;5103682;28;20473;-58
2023/07/19 03:47:43;;;;;;;2.20;1.80;;;;;;;;;;5102649;28;20694;-59
2023/07/19 03:50:10;;;;;;;4.47;2.07;;;18.30;99.90;;;;;;5099339;28;20509;-60
2023/07/19 03:52:37;;;;;;;2.97;2.40;;;18.70;99.90;;;;;;5099534;28;20487;-59
2023/07/19 03:55:07;;;;;;;2.87;2.50;;;19.00;99.90;;;;;;5098930;28;20529;-58
2023/07/19 03:57:36;;;;;;;9.00;2.00;;;18.60;99.90;;;;;;5099159;28;20442;-59
2023/07/19 04:00:04;;;;;;;6.70;2.80;;;18.90;99.90;;;;;;5111410;28;20878;-59
2023/07/19 04:02:31;;;;;;;5.83;2.07;;;19.00;99.90;;;;;;5119368;28;20487;-59
2023/07/19 04:04:59;;;;;;;5.60;2.27;;;18.90;99.90;;;;;;5121918;28;20469;-58
2023/07/19 04:07:29;;;;;;;3.23;1.67;;;18.90;99.90;;;;;;5122947;28;20456;-60
2023/07/19 04:09:56;;;;;;;3.77;2.10;;;18.70;99.90;;;;;;5116005;28;20553;-60
2023/07/19 04:12:23;;;;;;;4.50;1.97;;;;;;;;;;5115921;28;20495;-60
2023/07/19 04:14:52;;;;;;;3.07;2.20;;;;;;;;;;5115778;28;20504;-58
2023/07/19 04:17:19;;;;;;;4.37;2.03;;;19.00;99.90;;;;;;5117611;28;20504;-59
2023/07/19 04:19:46;;;;;;;2.50;1.60;;;;;;;;;;5119067;28;20516;-60
2023/07/19 04:22:13;;;;;;;2.20;1.80;;;19.10;99.90;;;;;;5119069;28;20461;-61
2023/07/19 04:24:40;;;;;;;4.07;2.20;;;;;;;;;;5119113;28;20598;-61
2023/07/19 04:27:07;;;;;;;6.30;1.97;;;19.20;99.90;;;;;;5121758;28;20445;-59
2023/07/19 04:29:34;;;;;;;3.50;2.07;;;;;;;;;;5124108;28;20479;-60
2023/07/19 04:32:05;;;;;;;2.37;2.00;;;19.00;99.90;;;;;;5119504;28;20492;-61
2023/07/19 04:34:31;;;;;;;5.17;2.90;;;19.00;99.90;;;;;;5119735;28;20436;-58
2023/07/19 04:36:59;;;;;;;6.93;2.17;;;;;;;;;;5115601;28;20468;-59
2023/07/19 04:39:25;;;;;;;3.40;1.90;;;19.20;99.90;;;;;;5116388;28;20486;-60
2023/07/19 04:41:53;;;;;;;4.07;2.07;;;;;;;;;;5114989;28;20562;-60
2023/07/19 04:44:19;;;;;;;2.20;1.83;;;19.20;99.90;;;;;;5115034;28;20444;-60
2023/07/19 04:46:47;;;;;;;2.57;1.70;;;;;;;;;;5115262;28;20469;-58
2023/07/19 04:49:15;;;;;;;2.20;1.60;;;19.10;99.90;;;;;;5116241;28;20513;-60
2023/07/19 04:51:43;;;;;;;6.23;2.53;;;19.10;99.90;;;;;;5116282;28;20498;-58
2023/07/19 04:54:09;;;;;;;2.77;2.50;;;19.10;99.90;;;;;;5121670;28;20451;-59
2023/07/19 04:56:37;;;;;;;4.50;1.77;;;;;;;;;;5119204;28;20529;-59
2023/07/19 04:59:04;;;;;;;3.00;1.90;;;19.00;99.90;;;;;;5117678;28;20480;-60
2023/07/19 05:01:31;;;;;;;2.27;2.00;;;19.40;99.90;;;;;;5118474;28;20472;-59
2023/07/19 05:03:58;;;;;;;3.90;1.83;;;;;;;;;;5122637;28;20467;-57
2023/07/19 05:06:26;;;;;;;1.97;1.47;;;;;;;;;;5123075;28;20499;-58
2023/07/19 05:08:54;;;;;;;2.63;1.80;;;;;;;;;;5115320;28;20870;-60
2023/07/19 05:11:22;;;;;;;3.97;2.03;;;20.00;99.90;;;;;;5114513;28;20480;-60
2023/07/19 05:13:49;;;;;;;3.13;1.77;;;19.70;99.90;;;;;;5114880;28;20440;-60
2023/07/19 05:16:16;;;;;;;2.20;1.70;;;19.50;99.90;;;;;;5115891;28;20893;-59
2023/07/19 05:18:43;;;;;;;4.90;2.27;;;;;;;;;;5115912;28;20480;-59
2023/07/19 05:21:10;;;;;;;2.80;2.00;;;;;;;;;;5116743;28;20488;-59
2023/07/19 05:23:38;;;;;;;2.17;1.97;;;19.90;99.90;;;;;;5123347;28;20543;-59
2023/07/19 05:26:05;;;;;;;2.30;2.00;;;;;;;;;;5118035;28;20504;-59
2023/07/19 05:28:32;;;;;;;2.40;2.07;;;;;;;;;;5114632;28;20480;-57
2023/07/19 05:31:02;;;;;;;3.63;2.20;;;20.10;99.90;;;;;;5114429;28;20520;-59
2023/07/19 05:33:29;;;;;;;2.30;1.73;;;20.30;99.90;;;;;;5115060;28;20471;-59
2023/07/19 05:35:56;;;;;;;4.33;2.87;;;20.10;99.90;;;;;;5115478;28;20543;-59
2023/07/19 05:38:23;;;;;;;4.43;1.93;;;;;;;;;;5115178;28;20471;-59
2023/07/19 05:40:51;;;;;;;2.87;1.50;;;20.20;99.90;;;;;;5115342;28;20494;-60
2023/07/19 05:43:19;;;;;;;2.47;1.87;;;;;;;;;;5115347;28;20551;-60
2023/07/19 05:45:46;;;;;;;3.83;1.97;;;20.70;99.90;;;;;;5115303;28;20452;-59
2023/07/19 05:48:13;;;;;;;2.57;2.20;;;;;;;;;;5115200;28;20494;-59
2023/07/19 05:50:40;;;;;;;3.40;1.90;;;20.50;99.90;;;;;;5115582;28;20448;-57
2023/07/19 05:53:06;;;;;;;2.70;1.93;;;20.40;99.90;;;;;;5114801;28;20468;-59
2023/07/19 05:55:33;;;;;;;5.83;2.70;;;20.80;99.90;;;;;;5115167;28;20551;-59
2023/07/19 05:58:01;;;;;;;4.83;2.10;;;20.60;99.90;;;;;;5115153;28;20497;-60
2023/07/19 06:00:29;;;;;;;9.73;2.83;;;21.10;99.90;;;;;;5119130;28;20936;-60
2023/07/19 06:02:56;;;;;;;3.87;2.10;;;21.00;99.90;;;;;;5118821;28;20455;-59
2023/07/19 06:05:24;;;;;;;4.30;2.70;;;21.20;99.90;;;;;;5119001;28;20440;-59
2023/07/19 06:07:51;;;;;;;2.93;1.70;;;;;;;;;;5119156;28;20445;-59
2023/07/19 06:10:19;;;;;;;2.30;2.00;;;21.60;99.90;;;;;;5119146;28;20550;-60
2023/07/19 06:12:46;;;;;;;5.03;1.60;;;21.70;99.90;;;;;;5119627;28;20448;-60
2023/07/19 06:15:15;;;;;;;6.10;2.27;;;21.60;99.90;;;;;;5120860;28;20494;-60
2023/07/19 06:17:42;;;;;;;4.03;2.00;;;21.80;99.90;;;;;;5120641;28;20454;-61
2023/07/19 06:20:11;;;;;;;2.50;2.23;;;21.90;99.90;;;;;;5120614;28;20585;-59
2023/07/19 06:22:39;;;;;;;3.50;1.87;;;22.10;99.90;;;;;;5120991;28;20451;-59
2023/07/19 06:25:07;;;;;;;2.60;2.03;;;21.70;99.90;;;;;;5120185;28;20510;-58
2023/07/19 06:27:34;;;;;;;4.00;2.17;;;21.90;99.90;;;;;;5122337;28;20503;-59
2023/07/19 06:30:01;;;;;;;6.87;2.40;;;;;;;;;;5122598;28;20491;-59
2023/07/19 06:32:29;;;;;;;3.30;2.80;;;22.20;99.90;;;;;;5117650;28;20803;-58
2023/07/19 06:34:56;;;;;;;3.67;2.03;;;;;;;;;;5118881;28;20463;-58
2023/07/19 06:37:23;;;;;;;3.43;2.57;;;22.30;99.90;;;;;;5120703;28;20444;-59
2023/07/19 06:39:50;;;;;;;2.90;2.30;;;22.50;99.90;;;;;;5117361;28;20578;-60
2023/07/19 06:42:17;;;;;;;1.83;1.63;;;22.40;99.90;;;;;;5117918;28;20429;-61
2023/07/19 06:44:44;;;;;;;10.53;2.27;;;;;;;;;;5119066;28;20521;-60
2023/07/19 06:47:11;;;;;;;3.30;2.10;;;;;;;;;;5120441;28;20440;-61
2023/07/19 06:49:39;;;;;;;6.23;2.57;;;22.70;98.30;;;;;;5119671;28;20512;-59
2023/07/19 06:52:07;;;;;;;5.73;2.53;;;22.80;99.90;;;;;;5119979;28;20445;-60
2023/07/19 06:54:34;;;;;;;5.73;2.43;;;22.90;99.90;;;;;;5120739;28;20541;-59
2023/07/19 06:57:01;;;;;;;1.80;1.67;;;22.70;99.70;;;;;;5122460;28;20444;-60
2023/07/19 06:59:28;;;;;;;4.20;2.27;;;22.70;99.90;;;;;;5122164;28;20488;-59
2023/07/19 07:01:55;;;;;;;9.43;3.27;;;22.60;99.90;;;;;;5122588;28;20528;-59
2023/07/19 07:04:23;;;;;;;3.43;2.00;;;23.10;99.90;;;;;;5122230;28;20444;-58
2023/07/19 07:06:52;;;;;;;3.40;2.30;;;22.90;99.90;;;;;;5122310;28;20468;-61
2023/07/19 07:09:19;;;;;;;5.10;2.40;;;;;;;;;;5130501;28;20465;-59
2023/07/19 07:11:46;;;;;;;3.97;2.47;;;23.10;99.90;;;;;;5121628;28;20468;-59
2023/07/19 07:14:13;;;;;;;5.10;2.63;;;24.00;99.00;;;;;;5133059;28;20471;-59
2023/07/19 07:16:40;;;;;;;3.63;2.10;;;;;;;;;;5131805;28;20461;-60
2023/07/19 07:19:07;;;;;;;6.30;2.00;;;23.70;99.90;;;;;;5127534;28;20547;-58
2023/07/19 07:21:34;;;;;;;5.27;1.93;;;23.80;99.90;;;;;;5128024;28;20996;-59
2023/07/19 07:24:03;;;;;;;5.60;2.10;;;24.00;99.90;;;;;;5125094;28;20470;-59
2023/07/19 07:26:29;;;;;;;2.37;2.10;;;24.50;99.90;;;;;;5124872;28;20464;-58
2023/07/19 07:28:56;;;;;;;7.77;2.20;;;24.70;99.90;;;;;;5125526;28;20471;-59
2023/07/19 07:31:23;;;;;;;2.40;1.80;;;25.30;99.90;;;;;;5125506;28;20469;-59
2023/07/19 07:33:50;;;;;;;5.77;3.63;;;26.10;99.90;;;;;;5127557;28;20621;-59
2023/07/19 07:36:17;;;;;;;3.47;2.30;;;;;;;;;;5129771;28;20459;-60
2023/07/19 07:38:44;;;;;;;4.40;2.10;;;26.80;99.90;;;;;;5136154;28;20453;-59
2023/07/19 07:41:12;;;;;;;3.00;2.00;;;27.20;99.90;;;;;;5119701;28;20519;-59
2023/07/19 07:43:40;;;;;;;2.90;2.60;;;26.90;99.60;;;;;;5119637;28;20476;-61
2023/07/19 07:46:07;;;;;;;2.23;1.93;;;;;;;;;;5117460;28;20761;-60
2023/07/19 07:48:34;;;;;;;3.47;2.13;;;;;;;;;;5117734;28;20449;-58
2023/07/19 07:51:01;;;;;;;3.40;1.90;;;26.90;99.00;;;;;;5122765;28;20958;-59
2023/07/19 07:53:28;;;;;;;2.87;2.00;;;;;;;;;;5122840;28;20999;-60
2023/07/19 07:55:56;;;;;;;2.40;2.10;;;;;;;;;;5127029;28;20479;-60
2023/07/19 07:58:24;;;;;;;3.33;2.60;;;28.20;73.70;;;;;;5126566;28;20527;-60
2023/07/19 08:00:53;;;;;;;2.67;2.00;;;28.60;95.50;;;;;;5125150;28;20483;-60
2023/07/19 08:03:20;;;;;;;6.40;2.10;;;;;;;;;;5122384;28;20492;-61
2023/07/19 08:05:47;;;;;;;2.10;1.70;;;;;;;;;;5123010;28;20828;-60
2023/07/19 08:08:14;;;;;;;3.10;2.40;;;;;;;;;;5123808;28;20959;-59
2023/07/19 08:10:41;;;;;;;4.23;3.83;;;30.10;94.60;;;;;;5122016;28;20448;-58
2023/07/19 08:13:10;;;;;;;5.00;2.37;;;30.20;79.60;;;;;;5115419;28;20474;-57
2023/07/19 08:15:38;;;;;;;3.43;2.13;;;29.50;61.80;;;;;;5116634;28;20513;-60
2023/07/19 08:18:05;;;;;;;3.30;1.77;;;28.80;96.00;;;;;;5116411;28;20468;-60
2023/07/19 08:20:32;;;;;;;3.00;2.23;;;;;;;;;;5116543;28;20956;-61
2023/07/19 08:22:59;;;;;;;2.90;2.23;;;27.80;97.40;;;;;;5116325;28;20469;-60
2023/07/19 08:25:26;;;;;;;2.50;2.27;;;27.40;93.70;;;;;;5117616;28;20437;-59
2023/07/19 08:27:53;;;;;;;3.20;2.00;;;27.30;94.20;;;;;;5118225;28;20445;-61
2023/07/19 08:30:20;;;;;;;2.40;2.20;;;26.70;83.00;;;;;;5119373;28;20451;-60
2023/07/19 08:32:49;;;;;;;4.23;2.07;;;26.60;98.40;;;;;;5118964;28;20440;-61
2023/07/19 08:35:17;;;;;;;2.20;2.00;;;26.70;69.60;;;;;;5122972;28;20507;-60
2023/07/19 08:37:45;;;;;;;3.57;2.30;;;26.70;75.80;;;;;;5124826;28;20825;-60
2023/07/19 08:40:14;;;;;;;4.50;2.40;;;27.20;67.60;;;;;;5124828;28;20530;-59
2023/07/19 08:42:42;;;;;;;2.70;1.87;;;27.40;66.80;;;;;;5125488;28;20449;-60
2023/07/19 08:45:10;;;;;;;5.37;2.40;;;27.60;97.70;;;;;;5123765;28;20440;-61
2023/07/19 08:47:41;;;;;;;3.90;1.97;;;27.70;66.30;;;;;;5124595;28;20478;-56
2023/07/19 08:50:12;;;;;;;2.10;1.90;;;28.20;94.80;;;;;;5094415;28;20457;-61
2023/07/19 08:52:39;;;;;;;5.73;2.00;;;29.20;95.80;;;;;;5097765;28;20441;-60
2023/07/19 08:55:07;;;;;;;2.20;1.80;;;29.60;94.30;;;;;;5097884;28;20465;-60
2023/07/19 08:57:39;;;;;;;4.37;1.93;;;29.70;59.60;;;;;;5102442;28;20731;-60
2023/07/19 09:00:08;;;;;;;2.50;1.77;;;29.20;94.10;;;;;;5108814;28;20572;-61
2023/07/19 09:02:35;;;;;;;2.33;2.13;;;29.40;94.30;;;;;;5101430;28;20910;-61
2023/07/19 09:05:06;;;;;;;3.40;2.17;;;29.00;90.00;;;;;;5101907;28;20465;-58
2023/07/19 09:07:36;;;;;;;3.27;2.97;;;29.40;90.90;;;;;;5102224;28;20509;-61
2023/07/19 09:10:04;;;;;;;2.10;1.90;;;30.10;93.90;;;;;;5102318;28;20466;-59
2023/07/19 09:12:39;;;;;;;2.20;1.90;;;29.90;92.70;;;;;;5102207;28;20441;-60
2023/07/19 09:15:08;;;;;;;3.47;2.10;;;30.20;88.10;;;;;;5102044;28;20543;-60
2023/07/19 09:17:40;;;;;;;1.90;1.57;;;30.00;58.30;;;;;;5102901;28;20494;-60
2023/07/19 09:20:08;;;;;;;3.70;2.07;;;30.20;91.40;;;;;;5102293;28;20497;-59
2023/07/19 09:22:38;;;;;;;2.30;2.10;;;30.50;91.20;;;;;;5110069;28;20437;-60
2023/07/19 09:25:06;;;;;;;3.00;1.80;;;31.30;91.70;;;;;;5107712;28;20468;-60
2023/07/19 09:27:33;;;;;;;3.93;2.10;;;30.90;85.10;;;;;;5100407;28;20440;-59
2023/07/19 09:30:00;;;;;;;2.60;1.77;;;30.20;62.80;;;;;;5097399;28;20483;-58
2023/07/19 09:32:27;;;;;;;2.40;1.97;;;29.80;88.40;;;;;;5126070;28;20437;-60
2023/07/19 09:34:55;;;;;;;3.50;2.10;;;29.80;91.50;;;;;;5127979;28;20458;-59
2023/07/19 09:37:23;;;;;;;3.53;1.60;;;30.20;84.10;;;;;;5128234;28;20436;-60
2023/07/19 09:39:52;;;;;;;1.83;1.57;;;30.40;54.60;;;;;;5128452;28;20509;-60
2023/07/19 09:42:20;;;;;;;2.97;2.10;;;30.70;91.30;;;;;;5128305;28;20523;-60
2023/07/19 09:44:48;;;;;;;2.27;1.77;;;30.40;90.80;;;;;;5128472;28;20944;-58
2023/07/19 09:47:15;;;;;;;2.60;2.40;;;;;;;;;;5128458;28;20468;-58
2023/07/19 09:49:43;;;;;;;4.03;2.57;;;30.30;89.90;;;;;;5127697;28;20456;-59
2023/07/19 09:52:17;;;;;;;3.30;2.33;;;29.50;59.50;;;;;;5127223;28;20476;-60
2023/07/19 09:54:44;;;;;;;2.67;2.17;;;29.30;91.70;;;;;;5128331;28;20417;-59
2023/07/19 09:57:13;;;;;;;3.17;2.20;;;29.20;88.40;;;;;;5136564;28;20468;-59
2023/07/19 09:59:44;;;;;;;2.60;2.00;;;28.90;90.10;;;;;;5130267;28;20451;-57
2023/07/19 10:02:12;;;;;;;3.20;2.43;;;29.20;88.40;;;;;;5129238;28;20522;-59
2023/07/19 10:04:42;;;;;;;3.03;2.50;;;29.40;87.50;;;;;;5129766;28;20432;-58
2023/07/19 10:07:11;;;;;;;2.50;2.03;;;29.90;86.90;;;;;;5135059;28;20814;-59
2023/07/19 10:09:41;;;;;;;3.60;1.97;;;29.90;85.50;;;;;;5129274;28;20444;-60
2023/07/19 10:12:22;;;;;;;2.40;2.20;;;29.80;85.50;;;;;;5127105;28;20521;-59
2023/07/19 10:14:56;;;;;;;1.80;1.50;;;29.00;56.30;;;;;;5127749;28;20450;-59
2023/07/19 10:17:24;;;;;;;4.60;2.00;;;28.50;81.70;;;;;;5127632;28;20467;-61
2023/07/19 10:20:12;;;;;;;3.60;2.30;;;27.80;88.80;;;;;;5128149;28;20440;-58
2023/07/19 10:22:55;;;;;;;4.63;1.90;;;27.40;57.60;;;;;;5129303;28;20472;-59
2023/07/19 10:25:24;;;;;;;4.30;3.03;;;26.80;59.50;;;;;;5120829;28;20880;-59
2023/07/19 10:28:05;;;;;;;3.03;2.10;;;26.60;91.20;;;;;;5120670;28;20475;-60
2023/07/19 10:30:57;;;;;;;2.60;1.97;;;26.60;95.00;;;;;;5120753;28;20512;-59
2023/07/19 10:33:26;;;;;;;10.90;2.60;;;26.80;95.40;;;;;;5101587;28;20488;-60
2023/07/19 10:35:55;;;;;;;3.70;2.50;;;26.50;94.50;;;;;;5122573;28;20497;-60
2023/07/19 10:38:24;;;;;;;3.07;1.93;;;26.40;62.40;;;;;;5122582;28;20551;-59
2023/07/19 10:40:56;;;;;;;2.00;1.70;;;26.60;61.00;;;;;;5121970;28;20575;-59
2023/07/19 10:43:24;;;;;;;4.50;2.43;;;26.70;92.20;;;;;;5127086;28;20468;-59
2023/07/19 10:45:52;;;;;;;3.37;2.30;;;26.50;93.20;;;;;;5125960;28;20467;-58
2023/07/19 10:48:20;;;;;;;4.03;2.10;;;26.60;95.80;;;;;;5126801;28;20547;-59
2023/07/19 10:50:48;;;;;;;4.40;2.20;;;26.20;91.50;;;;;;5126878;28;20469;-59
2023/07/19 10:53:15;;;;;;;3.13;2.10;;;27.10;95.70;;;;;;5126899;28;20468;-59
2023/07/19 10:55:44;;;;;;;3.10;1.60;;;;;;;;;;5127090;28;20445;-59
2023/07/19 10:58:12;;;;;;;2.93;2.50;;;27.30;93.40;;;;;;5127396;28;20539;-60
2023/07/19 11:00:43;;;;;;;5.10;1.93;;;;;;;;;;5126601;28;20555;-56
2023/07/19 11:03:13;;;;;;;2.03;1.63;;;28.10;60.70;;;;;;5106261;28;20483;-60
2023/07/19 11:05:46;;;;;;;3.00;1.93;;;27.20;61.20;;;;;;5105619;28;20499;-61
2023/07/19 11:08:20;;;;;;;3.17;2.60;;;27.20;60.90;;;;;;5105810;28;20437;-62
2023/07/19 11:10:47;;;;;;;4.60;2.30;;;27.30;91.70;;;;;;5105601;28;20429;-59
2023/07/19 11:13:14;;;;;;;1.67;1.50;;;27.30;95.00;;;;;;5105218;28;20488;-60
2023/07/19 11:15:42;;;;;;;2.70;2.00;;;27.40;91.20;;;;;;5105789;28;20445;-59
2023/07/19 11:18:09;;;;;;;2.83;2.17;;;;;;;;;;5105784;28;20464;-60
2023/07/19 11:20:39;;;;;;;3.83;1.70;;;27.20;91.20;;;;;;5105161;28;20505;-59
2023/07/19 11:23:08;;;;;;;2.20;1.93;;;27.40;95.30;;;;;;5105510;28;20456;-59
2023/07/19 11:25:39;;;;;;;2.90;2.20;;;27.70;62.10;;;;;;5096438;28;20817;-60
2023/07/19 11:28:06;;;;;;;2.23;1.80;;;27.40;92.20;;;;;;5096340;28;20717;-59
2023/07/19 11:30:37;;;;;;;3.23;2.30;;;27.50;90.70;;;;;;5097908;28;20469;-59
2023/07/19 11:33:06;;;;;;;7.17;3.93;;;27.10;94.90;;;;;;5119945;28;20524;-59
2023/07/19 11:35:33;;;;;;;2.60;1.80;;;;;;;;;;5119860;28;20472;-60
2023/07/19 11:38:00;;;;;;;11.07;5.87;;;27.00;95.60;;;;;;5120197;28;20445;-60
2023/07/19 11:40:28;;;;;;;4.30;2.60;;;27.20;95.00;;;;;;5119740;28;20555;-58
2023/07/19 11:42:57;;;;;;;3.93;3.47;;;27.70;60.80;;;;;;5120689;28;20440;-57
2023/07/19 11:45:26;;;;;;;2.23;1.90;;;28.20;94.50;;;;;;5116419;28;20937;-60
2023/07/19 11:47:56;;;;;;;3.40;1.80;;;28.00;93.00;;;;;;5130273;28;20536;-59
2023/07/19 11:50:24;;;;;;;2.87;2.00;;;;;;;;;;5124761;28;20460;-60
2023/07/19 11:52:55;;;;;;;4.40;3.40;;;28.00;90.50;;;;;;5115845;28;20986;-60
2023/07/19 11:55:23;;;;;;;2.47;2.23;;;28.20;91.00;;;;;;5116845;28;20480;-61
2023/07/19 11:57:53;;;;;;;5.67;2.20;;;27.90;90.40;;;;;;5117224;28;20509;-60
2023/07/19 12:00:22;;;;;;;4.33;2.00;;;28.00;59.50;;;;;;5121997;28;20479;-60
2023/07/19 12:02:50;;;;;;;2.57;2.37;;;27.30;59.20;;;;;;5125664;28;20925;-60
2023/07/19 12:05:19;;;;;;;2.90;2.20;;;27.30;94.80;;;;;;5116899;28;20440;-59
2023/07/19 12:07:47;;;;;;;4.93;2.50;;;;;;;;;;5122866;28;20433;-59
2023/07/19 12:10:14;;;;;;;10.37;2.73;;;;;;;;;;5124786;28;20457;-59
2023/07/19 12:12:41;;;;;;;6.70;2.27;;;27.50;62.50;;;;;;5131834;28;20448;-59
2023/07/19 12:15:11;;;;;;;2.50;2.27;;;27.30;90.90;;;;;;5124151;28;20483;-61
2023/07/19 12:17:38;;;;;;;3.43;1.63;;;27.60;94.10;;;;;;5124059;28;20444;-59
2023/07/19 12:20:07;;;;;;;2.77;2.07;;;27.40;59.90;;;;;;5123649;28;20445;-58
2023/07/19 12:22:35;;;;;;;3.67;2.00;;;27.30;90.80;;;;;;5124027;28;20488;-58
2023/07/19 12:25:03;;;;;;;2.43;1.90;;;26.80;91.80;;;;;;5124070;28;20476;-57
2023/07/19 12:27:31;;;;;;;3.37;2.50;;;26.70;92.20;;;;;;5123434;28;20472;-60
2023/07/19 12:29:58;;;;;;;2.30;2.10;;;26.80;93.50;;;;;;5124105;28;20468;-60
2023/07/19 12:32:27;;;;;;;2.33;1.83;;;26.80;97.00;;;;;;5115021;28;20544;-59
2023/07/19 12:34:54;;;;;;;3.93;2.10;;;26.40;91.90;;;;;;5115758;28;20525;-60
2023/07/19 12:37:21;;;;;;;9.20;2.40;;;26.50;90.70;;;;;;5118109;28;20475;-60
2023/07/19 12:39:50;;;;;;;2.73;2.07;;;26.70;90.40;;;;;;5119063;28;20474;-58
2023/07/19 12:42:17;;;;;;;2.80;1.97;;;;;;;;;;5118668;28;20524;-60
2023/07/19 12:44:44;;;;;;;2.50;2.30;;;27.10;94.00;;;;;;5118446;28;20982;-59
2023/07/19 12:47:11;;;;;;;3.40;2.27;;;27.10;93.90;;;;;;5115359;28;20480;-59
2023/07/19 12:49:39;;;;;;;2.50;2.00;;;26.70;92.10;;;;;;5114952;28;20429;-58
2023/07/19 12:52:07;;;;;;;4.40;3.13;;;26.90;92.90;;;;;;5115127;28;20484;-58
2023/07/19 12:54:34;;;;;;;5.67;2.40;;;26.90;92.90;;;;;;5118864;28;20460;-58
2023/07/19 12:57:01;;;;;;;3.17;2.10;;;27.20;88.40;;;;;;5124655;28;20464;-59
2023/07/19 12:59:28;;;;;;;6.53;2.20;;;27.20;61.20;;;;;;5124277;28;20444;-59
2023/07/19 13:01:55;;;;;;;2.83;2.53;;;27.60;61.10;;;;;;5124247;28;20480;-60
2023/07/19 13:04:24;;;;;;;3.50;2.00;;;27.70;92.20;;;;;;5124526;28;20444;-58
2023/07/19 13:06:54;;;;;;;2.60;2.40;;;27.60;61.10;;;;;;5117391;28;20936;-59
2023/07/19 13:09:21;;;;;;;4.87;2.60;;;27.30;79.30;;;;;;5113918;28;20444;-60
2023/07/19 13:11:48;;;;;;;2.33;2.00;;;27.50;59.50;;;;;;5114666;28;20449;-60
2023/07/19 13:14:15;;;;;;;8.43;2.30;;;28.00;91.00;;;;;;5115441;28;20555;-60